Terminal Aerodrome Forecast
Issued by NWS Duluth, MN

Home | Current Version | Previous Version | Text Only | Print | Product List | Glossary On
Versions: 1 2 3 4 5 6 7 8 9 10 11 12 13 14 15 16 17 18 19 20
000
FTUS43 KDLH 202332
TAFINL
TAF
KINL 202332Z 2100/2124 32004KT P6SM BKN070
     FM210200 00000KT P6SM SKC
     FM211500 19006KT P6SM BKN060
     FM211900 18008G16KT P6SM VCSH BKN050=

USA.gov is the U.S. government's official web portal to all federal, state and local government web resources and services.